createdAt,value
2023-05-10T00:00:40.601Z,7.15
2023-05-10T00:10:53.560Z,7.12
2023-05-10T00:21:01.325Z,6.95
2023-05-10T00:31:04.372Z,6.92
2023-05-10T00:41:06.332Z,6.89
2023-05-10T00:51:15.166Z,6.65
2023-05-10T01:01:23.117Z,6.68
2023-05-10T01:11:25.505Z,6.56
2023-05-10T01:21:44.119Z,6.42
2023-05-10T01:32:04.101Z,6.33
2023-05-10T01:42:28.320Z,6.24
2023-05-10T01:52:42.282Z,6.17
2023-05-10T02:02:50.199Z,6.08
2023-05-10T02:12:55.162Z,6.01
2023-05-10T02:22:59.563Z,5.90
2023-05-10T02:33:05.651Z,5.73
2023-05-10T02:43:13.347Z,5.59
2023-05-10T02:53:20.445Z,5.52
2023-05-10T03:03:22.308Z,5.42
2023-05-10T03:13:37.843Z,5.47
2023-05-10T03:23:47.219Z,5.78
2023-05-10T03:33:53.181Z,6.21
2023-05-10T03:43:56.255Z,6.67
2023-05-10T03:53:59.272Z,7.07
2023-05-10T04:04:01.375Z,7.92
2023-05-10T04:14:03.409Z,8.02
2023-05-10T04:24:09.490Z,8.44
2023-05-10T04:34:17.421Z,8.76
2023-05-10T04:44:22.356Z,9.90
2023-05-10T04:54:24.377Z,9.86
2023-05-10T05:04:27.360Z,10.06
2023-05-10T05:14:36.483Z,11.04
2023-05-10T05:24:39.476Z,11.25
2023-05-10T05:34:41.545Z,11.58
2023-05-10T05:44:44.781Z,13.19
2023-05-10T05:54:57.886Z,12.52
2023-05-10T06:05:07.348Z,13.37
2023-05-10T06:15:10.087Z,13.23
2023-05-10T06:25:20.190Z,14.37
2023-05-10T06:35:36.080Z,14.68
2023-05-10T06:45:38.093Z,14.51
2023-05-10T06:55:41.178Z,15.05
2023-05-10T07:05:43.624Z,15.36
2023-05-10T07:15:47.632Z,15.65
2023-05-10T07:25:59.581Z,15.74
2023-05-10T07:36:01.644Z,16.04
2023-05-10T07:46:04.031Z,16.20
2023-05-10T07:56:27.716Z,16.36
2023-05-10T08:06:36.468Z,16.04
2023-05-10T08:16:44.611Z,16.07
2023-05-10T08:26:49.780Z,15.95
2023-05-10T08:36:53.887Z,16.16
2023-05-10T08:46:56.836Z,16.32
2023-05-10T08:56:59.335Z,16.60
2023-05-10T09:07:01.416Z,17.10
2023-05-10T09:17:06.133Z,16.75
2023-05-10T09:27:11.696Z,16.87
2023-05-10T09:37:13.713Z,16.97
2023-05-10T09:47:22.458Z,16.91
2023-05-10T09:57:26.743Z,16.92
2023-05-10T10:07:36.624Z,17.06
2023-05-10T10:17:43.558Z,17.43
2023-05-10T10:27:53.439Z,17.18
2023-05-10T10:37:55.699Z,17.07
2023-05-10T10:48:23.791Z,17.08
2023-05-10T10:58:36.423Z,17.06
2023-05-10T11:08:45.211Z,17.32
2023-05-10T11:19:10.678Z,17.29
2023-05-10T11:29:21.447Z,16.98
2023-05-10T11:39:30.884Z,17.07
2023-05-10T11:49:32.940Z,17.12
2023-05-10T11:59:34.909Z,16.98
2023-05-10T12:09:44.374Z,17.18
2023-05-10T12:19:46.740Z,17.25
2023-05-10T12:40:18.509Z,17.28
2023-05-10T12:50:21.619Z,17.16
2023-05-10T13:00:23.545Z,17.20
2023-05-10T13:10:26.481Z,17.48
2023-05-10T13:20:29.647Z,17.27
2023-05-10T13:30:32.704Z,17.29
2023-05-10T13:40:35.188Z,17.45
2023-05-10T13:50:37.358Z,17.26
2023-05-10T14:00:40.364Z,17.37
2023-05-10T14:10:44.425Z,17.28
2023-05-10T14:20:46.612Z,17.35
2023-05-10T14:30:48.585Z,17.19
2023-05-10T14:40:50.863Z,17.34
2023-05-10T14:50:53.785Z,17.16
2023-05-10T15:00:55.848Z,17.34
2023-05-10T15:10:58.523Z,17.40
2023-05-10T15:21:00.524Z,17.24
2023-05-10T15:31:02.414Z,17.14
2023-05-10T15:41:04.554Z,17.14
2023-05-10T15:51:06.762Z,17.17
2023-05-10T16:01:12.502Z,17.04
2023-05-10T16:11:16.703Z,16.87
2023-05-10T16:21:18.843Z,16.78
2023-05-10T16:31:21.008Z,16.72
2023-05-10T16:41:23.246Z,16.57
2023-05-10T16:51:27.995Z,16.46
2023-05-10T17:01:30.028Z,16.22
2023-05-10T17:11:32.714Z,16.17
2023-05-10T17:21:34.940Z,15.95
2023-05-10T17:31:38.028Z,15.73
2023-05-10T17:41:44.290Z,15.50
2023-05-10T17:51:51.411Z,15.36
2023-05-10T18:01:53.498Z,15.01
2023-05-10T18:11:55.636Z,14.63
2023-05-10T18:22:00.559Z,14.39
2023-05-10T18:32:02.871Z,14.11
2023-05-10T18:42:08.985Z,13.91
2023-05-10T18:52:12.047Z,13.60
2023-05-10T19:02:14.408Z,13.28
2023-05-10T19:12:16.818Z,13.14
2023-05-10T19:22:35.361Z,13.10
2023-05-10T19:32:44.466Z,13.06
2023-05-10T19:42:58.866Z,12.83
2023-05-10T19:53:01.975Z,12.79
2023-05-10T20:03:11.471Z,12.71
2023-05-10T20:13:14.558Z,12.55
2023-05-10T20:23:17.085Z,12.30
2023-05-10T20:33:33.863Z,12.10
2023-05-10T20:43:36.366Z,11.74
2023-05-10T20:53:39.322Z,11.66
2023-05-10T21:03:44.648Z,11.06
2023-05-10T21:13:48.352Z,10.84
2023-05-10T21:23:51.357Z,10.73
2023-05-10T21:34:01.296Z,10.58
2023-05-10T21:44:06.520Z,10.35
2023-05-10T21:54:19.484Z,10.16
2023-05-10T22:04:28.795Z,10.05
2023-05-10T22:14:31.110Z,9.98
2023-05-10T22:24:33.101Z,9.65
2023-05-10T22:34:35.987Z,9.54
2023-05-10T22:44:38.945Z,9.42
2023-05-10T22:54:40.820Z,9.29
2023-05-10T23:04:43.801Z,9.13
2023-05-10T23:14:57.183Z,9.01
2023-05-10T23:25:09.829Z,8.88
2023-05-10T23:35:22.744Z,8.74
2023-05-10T23:45:27.683Z,8.72
2023-05-10T23:55:29.687Z,8.68
